createdAt,value
2023-10-29T00:01:28.360Z,3.00
2023-10-29T00:03:56.422Z,2.85
2023-10-29T00:06:23.317Z,2.75
2023-10-29T00:08:50.187Z,2.78
2023-10-29T00:11:16.929Z,2.85
2023-10-29T00:13:44.285Z,3.03
2023-10-29T00:16:12.542Z,2.60
2023-10-29T00:18:40.256Z,2.20
2023-10-29T00:21:07.457Z,2.42
2023-10-29T00:23:35.143Z,2.60
2023-10-29T00:26:02.076Z,2.63
2023-10-29T00:28:28.878Z,2.38
2023-10-29T00:30:56.594Z,2.22
2023-10-29T00:33:24.439Z,2.45
2023-10-29T00:35:51.737Z,2.33
2023-10-29T00:38:18.457Z,2.50
2023-10-29T00:40:45.209Z,2.22
2023-10-29T00:43:15.809Z,2.28
2023-10-29T00:45:44.273Z,2.13
2023-10-29T00:48:13.009Z,2.47
2023-10-29T00:50:40.851Z,1.98
2023-10-29T00:53:07.839Z,2.45
2023-10-29T00:55:34.869Z,2.00
2023-10-29T00:58:01.705Z,2.42
2023-10-29T01:00:28.489Z,2.83
2023-10-29T01:02:55.420Z,2.05
2023-10-29T01:05:23.155Z,2.15
2023-10-29T01:07:50.314Z,2.38
2023-10-29T01:10:16.969Z,2.03
2023-10-29T01:12:45.313Z,2.25
2023-10-29T01:15:12.023Z,2.13
2023-10-29T01:17:39.376Z,2.45
2023-10-29T01:20:06.672Z,2.30
2023-10-29T01:22:34.722Z,2.08
2023-10-29T01:25:06.839Z,2.20
2023-10-29T01:27:34.328Z,1.88
2023-10-29T01:30:00.982Z,2.00
2023-10-29T01:32:27.687Z,2.15
2023-10-29T01:34:54.438Z,2.65
2023-10-29T01:37:21.125Z,2.47
2023-10-29T01:39:47.787Z,2.05
2023-10-29T01:42:14.526Z,2.45
2023-10-29T01:44:41.288Z,2.42
2023-10-29T01:47:08.007Z,2.58
2023-10-29T01:49:34.695Z,2.25
2023-10-29T01:52:01.430Z,2.25
2023-10-29T01:54:28.365Z,2.70
2023-10-29T01:56:55.040Z,2.20
2023-10-29T01:59:21.921Z,2.53
2023-10-29T02:01:48.768Z,2.78
2023-10-29T02:04:15.497Z,2.33
2023-10-29T02:06:42.303Z,2.90
2023-10-29T02:09:10.251Z,2.40
2023-10-29T02:11:40.978Z,2.25
2023-10-29T02:14:08.169Z,2.15
2023-10-29T02:16:35.153Z,2.55
2023-10-29T02:19:01.810Z,2.40
2023-10-29T02:21:28.473Z,2.45
2023-10-29T02:23:56.472Z,2.33
2023-10-29T02:26:24.348Z,2.80
2023-10-29T02:28:51.278Z,2.22
2023-10-29T02:31:18.934Z,2.15
2023-10-29T02:33:46.116Z,2.30
2023-10-29T02:36:12.965Z,2.92
2023-10-29T02:38:39.755Z,2.40
2023-10-29T02:41:06.990Z,2.28
2023-10-29T02:43:40.017Z,2.47
2023-10-29T02:46:07.081Z,2.15
2023-10-29T02:48:34.019Z,2.55
2023-10-29T02:51:00.819Z,2.53
2023-10-29T02:53:27.515Z,2.50
2023-10-29T02:55:57.689Z,2.50
2023-10-29T02:58:25.822Z,2.65
2023-10-29T03:00:52.641Z,2.92
2023-10-29T03:03:19.493Z,2.22
2023-10-29T03:05:56.779Z,2.40
2023-10-29T03:08:24.647Z,2.30
2023-10-29T03:10:52.243Z,2.22
2023-10-29T03:13:18.993Z,3.03
2023-10-29T03:15:46.223Z,2.05
2023-10-29T03:18:13.363Z,3.35
2023-10-29T03:20:40.826Z,2.80
2023-10-29T03:23:07.816Z,2.20
2023-10-29T03:25:34.650Z,2.33
2023-10-29T03:28:01.579Z,2.80
2023-10-29T03:30:28.209Z,2.70
2023-10-29T03:32:55.047Z,2.90
2023-10-29T03:35:21.909Z,2.83
2023-10-29T03:37:48.536Z,3.20
2023-10-29T03:40:15.249Z,2.85
2023-10-29T03:42:41.874Z,2.97
2023-10-29T03:45:08.813Z,2.40
2023-10-29T03:47:35.482Z,2.88
2023-10-29T03:50:03.236Z,3.05
2023-10-29T03:52:29.844Z,3.33
2023-10-29T03:54:56.500Z,3.20
2023-10-29T03:57:23.193Z,3.92
2023-10-29T03:59:49.965Z,2.83
2023-10-29T04:02:16.661Z,3.00
2023-10-29T04:04:47.936Z,3.20
2023-10-29T04:07:20.507Z,2.55
2023-10-29T04:09:47.204Z,2.33
2023-10-29T04:12:13.828Z,2.42
2023-10-29T04:14:43.799Z,2.88
2023-10-29T04:17:11.716Z,2.53
2023-10-29T04:19:40.305Z,3.35
2023-10-29T04:22:06.984Z,2.38
2023-10-29T04:24:34.649Z,2.53
2023-10-29T04:27:01.412Z,2.38
2023-10-29T04:29:28.076Z,2.63
2023-10-29T04:31:54.730Z,2.65
2023-10-29T04:34:21.458Z,2.42
2023-10-29T04:36:52.759Z,2.30
2023-10-29T04:39:20.674Z,3.03
2023-10-29T04:41:48.080Z,1.85
2023-10-29T04:44:15.173Z,2.72
2023-10-29T04:46:41.803Z,3.08
2023-10-29T04:49:08.652Z,2.22
2023-10-29T04:51:35.745Z,2.35
2023-10-29T04:54:02.597Z,2.83
2023-10-29T04:56:29.318Z,2.45
2023-10-29T04:58:56.000Z,2.45
2023-10-29T05:01:22.690Z,2.28
2023-10-29T05:03:49.554Z,2.17
2023-10-29T05:06:23.063Z,2.30
2023-10-29T05:08:53.087Z,2.15
2023-10-29T05:11:20.399Z,2.08
2023-10-29T05:13:47.061Z,2.03
2023-10-29T05:16:13.875Z,1.63
2023-10-29T05:18:40.667Z,2.35
2023-10-29T05:21:09.028Z,2.08
2023-10-29T05:23:36.216Z,1.55
2023-10-29T05:26:02.990Z,2.17
2023-10-29T05:28:29.717Z,1.85
2023-10-29T05:30:56.499Z,2.45
2023-10-29T05:33:23.315Z,1.92
2023-10-29T05:35:50.073Z,2.47
2023-10-29T05:38:16.736Z,2.50
2023-10-29T05:40:43.450Z,2.40
2023-10-29T05:43:11.248Z,2.22
2023-10-29T05:45:38.087Z,1.98
2023-10-29T05:48:05.257Z,1.92
2023-10-29T05:50:32.855Z,2.42
2023-10-29T05:52:59.764Z,2.53
2023-10-29T05:55:26.560Z,2.35
2023-10-29T05:57:53.646Z,1.77
2023-10-29T06:00:20.775Z,2.17
2023-10-29T06:02:47.644Z,2.53
2023-10-29T06:05:14.500Z,2.70
2023-10-29T06:07:45.187Z,2.00
2023-10-29T06:10:13.942Z,2.28
2023-10-29T06:12:41.764Z,2.00
2023-10-29T06:15:12.484Z,1.90
2023-10-29T06:17:40.065Z,1.83
2023-10-29T06:20:09.998Z,1.98
2023-10-29T06:22:36.791Z,1.55
2023-10-29T06:25:03.605Z,2.10
2023-10-29T06:27:30.365Z,1.67
2023-10-29T06:29:57.098Z,1.95
2023-10-29T06:32:24.392Z,1.70
2023-10-29T06:34:51.087Z,1.73
2023-10-29T06:37:17.803Z,2.03
2023-10-29T06:39:44.483Z,1.70
2023-10-29T06:42:11.265Z,1.60
2023-10-29T06:44:37.968Z,1.40
2023-10-29T06:47:06.150Z,1.50
2023-10-29T06:49:32.864Z,1.60
2023-10-29T06:51:59.554Z,1.30
2023-10-29T06:54:26.308Z,2.33
2023-10-29T06:56:53.115Z,1.88
2023-10-29T06:59:20.071Z,1.42
2023-10-29T07:01:48.428Z,1.52
2023-10-29T07:04:16.271Z,1.58
2023-10-29T07:06:44.339Z,2.20
2023-10-29T07:09:11.242Z,1.48
2023-10-29T07:11:38.045Z,1.63
2023-10-29T07:14:05.006Z,1.33
2023-10-29T07:16:31.637Z,1.90
2023-10-29T07:18:59.137Z,1.77
2023-10-29T07:21:27.303Z,1.92
2023-10-29T07:23:55.280Z,1.67
2023-10-29T07:26:21.920Z,1.38
2023-10-29T07:28:48.583Z,1.77
2023-10-29T07:31:16.911Z,1.50
2023-10-29T07:33:44.808Z,1.40
2023-10-29T07:36:11.489Z,1.55
2023-10-29T07:38:38.248Z,1.17
2023-10-29T07:41:04.916Z,1.42
2023-10-29T07:43:31.630Z,1.33
2023-10-29T07:46:07.527Z,0.88
2023-10-29T07:48:34.298Z,1.10
2023-10-29T07:51:01.462Z,1.45
2023-10-29T07:53:29.368Z,1.08
2023-10-29T07:55:56.031Z,1.50
2023-10-29T07:58:23.257Z,1.40
2023-10-29T08:00:50.229Z,1.05
2023-10-29T08:03:19.608Z,1.40
2023-10-29T08:05:52.810Z,1.50
2023-10-29T08:08:19.830Z,2.92
2023-10-29T08:10:46.984Z,3.08
2023-10-29T08:13:13.645Z,1.70
2023-10-29T08:15:43.487Z,1.30
2023-10-29T08:18:10.583Z,1.50
2023-10-29T08:20:38.882Z,1.35
2023-10-29T08:23:05.576Z,1.10
2023-10-29T08:25:32.730Z,1.23
2023-10-29T08:27:59.679Z,1.63
2023-10-29T08:30:26.342Z,1.00
2023-10-29T08:32:53.074Z,1.02
2023-10-29T08:35:19.815Z,1.30
2023-10-29T08:37:46.940Z,1.00
2023-10-29T08:40:14.571Z,4.70
2023-10-29T08:42:41.337Z,1.70
2023-10-29T08:45:08.336Z,1.35
2023-10-29T08:47:35.258Z,1.20
2023-10-29T08:50:02.106Z,1.50
2023-10-29T08:52:28.771Z,1.95
2023-10-29T08:54:55.415Z,1.27
2023-10-29T08:57:22.690Z,1.90
2023-10-29T08:59:49.582Z,1.30
2023-10-29T09:02:16.374Z,1.48
2023-10-29T09:04:43.038Z,1.27
2023-10-29T09:07:09.874Z,1.58
2023-10-29T09:09:39.277Z,1.30
2023-10-29T09:12:06.114Z,1.33
2023-10-29T09:14:32.800Z,1.70
2023-10-29T09:16:59.792Z,1.33
2023-10-29T09:19:28.850Z,1.27
2023-10-29T09:21:55.473Z,1.45
2023-10-29T09:24:22.197Z,2.00
2023-10-29T09:26:49.237Z,1.60
2023-10-29T09:29:15.916Z,1.20
2023-10-29T09:31:42.707Z,1.70
2023-10-29T09:34:09.576Z,1.90
2023-10-29T09:36:36.224Z,1.48
2023-10-29T09:39:03.389Z,1.88
2023-10-29T09:41:32.364Z,1.80
2023-10-29T09:43:59.834Z,1.77
2023-10-29T09:46:31.777Z,1.58
2023-10-29T09:48:59.624Z,1.48
2023-10-29T09:51:26.743Z,1.67
2023-10-29T09:53:55.482Z,2.03
2023-10-29T09:56:22.170Z,1.98
2023-10-29T09:58:48.914Z,2.05
2023-10-29T10:01:16.473Z,1.50
2023-10-29T10:03:43.523Z,1.38
2023-10-29T10:06:12.401Z,2.45
2023-10-29T10:08:39.138Z,2.22
2023-10-29T10:11:21.542Z,1.55
2023-10-29T10:13:48.582Z,1.63
2023-10-29T10:16:17.214Z,1.67
2023-10-29T10:18:50.204Z,1.90
2023-10-29T10:21:17.083Z,2.70
2023-10-29T10:23:48.612Z,2.10
2023-10-29T10:26:18.465Z,2.15
2023-10-29T10:28:55.228Z,1.35
2023-10-29T10:33:49.418Z,1.70
2023-10-29T10:36:30.790Z,1.58
2023-10-29T10:38:57.511Z,1.40
2023-10-29T10:41:24.192Z,1.52
2023-10-29T10:44:14.693Z,2.45
2023-10-29T10:46:50.943Z,2.33
2023-10-29T10:49:18.970Z,1.45
2023-10-29T10:51:48.696Z,1.67
2023-10-29T10:54:20.759Z,1.40
2023-10-29T10:56:51.659Z,1.73
2023-10-29T10:59:19.218Z,1.90
2023-10-29T11:01:46.185Z,1.80
2023-10-29T11:04:13.401Z,1.55
2023-10-29T11:06:42.220Z,1.38
2023-10-29T11:09:14.304Z,1.95
2023-10-29T11:11:51.225Z,1.80
2023-10-29T11:14:19.429Z,2.47
2023-10-29T11:16:50.715Z,1.75
2023-10-29T11:19:45.951Z,2.55
2023-10-29T11:22:23.956Z,1.95
2023-10-29T11:25:16.991Z,2.63
2023-10-29T11:27:47.739Z,2.08
2023-10-29T11:30:28.753Z,3.67
2023-10-29T11:33:08.181Z,2.28
2023-10-29T11:35:35.515Z,2.35
2023-10-29T11:38:23.253Z,1.95
2023-10-29T11:40:51.088Z,2.30
2023-10-29T11:43:21.569Z,1.90
2023-10-29T11:45:58.758Z,2.28
2023-10-29T11:48:26.864Z,2.95
2023-10-29T11:51:12.017Z,2.40
2023-10-29T11:53:39.640Z,2.22
2023-10-29T11:56:11.453Z,2.17
2023-10-29T11:58:38.826Z,2.58
2023-10-29T12:01:05.849Z,2.47
2023-10-29T12:03:33.609Z,2.47
2023-10-29T12:06:02.163Z,2.60
2023-10-29T12:08:31.842Z,2.67
2023-10-29T12:10:59.457Z,2.25
2023-10-29T12:13:26.403Z,2.00
2023-10-29T12:15:58.534Z,2.10
2023-10-29T12:18:26.854Z,2.75
2023-10-29T12:21:10.746Z,1.65
2023-10-29T12:23:38.725Z,2.35
2023-10-29T12:26:08.049Z,2.78
2023-10-29T12:28:38.903Z,3.03
2023-10-29T12:31:08.635Z,2.35
2023-10-29T12:33:37.274Z,2.05
2023-10-29T12:36:07.725Z,1.85
2023-10-29T12:38:39.303Z,2.80
2023-10-29T12:41:16.207Z,1.92
2023-10-29T12:43:48.619Z,2.70
2023-10-29T12:46:20.030Z,2.25
2023-10-29T12:49:05.095Z,2.13
2023-10-29T12:51:44.628Z,2.03
2023-10-29T12:54:25.939Z,2.42
2023-10-29T12:56:57.792Z,2.30
2023-10-29T12:59:34.258Z,2.55
2023-10-29T13:02:10.247Z,2.83
2023-10-29T13:04:38.249Z,2.33
2023-10-29T13:07:12.935Z,2.67
2023-10-29T13:09:40.376Z,1.80
2023-10-29T13:12:09.370Z,2.22
2023-10-29T13:14:37.908Z,2.10
2023-10-29T13:17:05.919Z,2.58
2023-10-29T13:19:34.318Z,2.20
2023-10-29T13:22:01.150Z,2.67
2023-10-29T13:24:27.887Z,2.17
2023-10-29T13:26:54.727Z,3.13
2023-10-29T13:29:24.558Z,3.03
2023-10-29T13:31:51.223Z,1.92
2023-10-29T13:34:18.326Z,2.78
2023-10-29T13:36:45.247Z,2.28
2023-10-29T13:39:12.415Z,2.15
2023-10-29T13:41:39.672Z,2.03
2023-10-29T13:44:06.457Z,2.25
2023-10-29T13:46:33.216Z,3.30
2023-10-29T13:49:01.275Z,1.83
2023-10-29T13:51:28.398Z,2.30
2023-10-29T13:53:55.376Z,3.08
2023-10-29T13:56:24.593Z,2.05
2023-10-29T13:58:51.238Z,2.40
2023-10-29T14:01:24.211Z,1.80
2023-10-29T14:03:53.311Z,2.88
2023-10-29T14:06:20.396Z,2.28
2023-10-29T14:08:47.338Z,2.05
2023-10-29T14:11:15.860Z,2.35
2023-10-29T14:13:45.786Z,1.63
2023-10-29T14:16:13.645Z,2.63
2023-10-29T14:18:41.507Z,2.00
2023-10-29T14:21:08.460Z,2.75
2023-10-29T14:23:36.136Z,1.92
2023-10-29T14:26:02.905Z,1.80
2023-10-29T14:28:30.059Z,2.00
2023-10-29T14:30:57.229Z,2.63
2023-10-29T14:33:24.475Z,3.45
2023-10-29T14:35:58.495Z,2.13
2023-10-29T14:38:25.419Z,1.75
2023-10-29T14:40:54.688Z,2.05
2023-10-29T14:43:22.923Z,2.00
2023-10-29T14:45:54.250Z,2.25
2023-10-29T14:48:21.751Z,1.90
2023-10-29T14:50:49.580Z,2.25
2023-10-29T14:53:16.441Z,1.80
2023-10-29T14:55:48.768Z,1.92
2023-10-29T14:58:16.172Z,2.30
2023-10-29T15:00:46.628Z,1.50
2023-10-29T15:03:14.215Z,2.13
2023-10-29T15:05:41.794Z,1.65
2023-10-29T15:08:08.920Z,1.60
2023-10-29T15:10:35.895Z,1.67
2023-10-29T15:13:02.943Z,1.55
2023-10-29T15:15:30.570Z,1.35
2023-10-29T15:17:58.275Z,1.70
2023-10-29T15:20:27.624Z,1.50
2023-10-29T15:22:54.860Z,2.58
2023-10-29T15:25:30.461Z,2.17
2023-10-29T15:27:57.383Z,1.67
2023-10-29T15:30:24.056Z,1.73
2023-10-29T15:32:54.459Z,2.33
2023-10-29T15:35:21.329Z,1.60
2023-10-29T15:37:49.849Z,1.60
2023-10-29T15:40:16.666Z,1.42
2023-10-29T15:42:43.348Z,1.75
2023-10-29T15:45:10.425Z,2.58
2023-10-29T15:47:37.163Z,2.10
2023-10-29T15:50:04.750Z,1.80
2023-10-29T15:52:31.376Z,2.10
2023-10-29T15:54:58.082Z,1.70
2023-10-29T15:57:24.841Z,1.63
2023-10-29T15:59:51.784Z,2.22
2023-10-29T16:02:18.587Z,2.05
2023-10-29T16:04:45.852Z,2.03
2023-10-29T16:07:14.112Z,1.80
2023-10-29T16:09:40.760Z,5.70
2023-10-29T16:12:09.922Z,2.58
2023-10-29T16:14:37.207Z,2.65
2023-10-29T16:17:05.127Z,1.95
2023-10-29T16:19:32.368Z,1.70
2023-10-29T16:21:59.156Z,1.90
2023-10-29T16:24:29.324Z,1.55
2023-10-29T16:26:58.036Z,1.65
2023-10-29T16:29:24.949Z,1.23
2023-10-29T16:31:51.645Z,2.25
2023-10-29T16:34:20.154Z,2.20
2023-10-29T16:36:47.175Z,1.80
2023-10-29T16:39:13.807Z,1.63
2023-10-29T16:41:40.458Z,2.35
2023-10-29T16:44:07.111Z,1.88
2023-10-29T16:46:33.747Z,1.80
2023-10-29T16:49:02.539Z,1.85
2023-10-29T16:51:29.695Z,2.13
2023-10-29T16:53:56.459Z,1.95
2023-10-29T16:56:23.654Z,1.58
2023-10-29T16:58:50.384Z,1.95
2023-10-29T17:01:17.299Z,1.90
2023-10-29T17:03:46.390Z,2.63
2023-10-29T17:06:19.813Z,1.90
2023-10-29T17:08:47.080Z,2.50
2023-10-29T17:11:14.071Z,2.45
2023-10-29T17:13:43.392Z,2.13
2023-10-29T17:16:10.252Z,2.08
2023-10-29T17:18:37.676Z,2.10
2023-10-29T17:21:05.281Z,2.45
2023-10-29T17:23:32.909Z,2.50
2023-10-29T17:26:01.690Z,3.25
2023-10-29T17:28:28.447Z,3.17
2023-10-29T17:30:55.248Z,3.35
2023-10-29T17:33:23.068Z,2.78
2023-10-29T17:35:53.817Z,2.30
2023-10-29T17:38:21.007Z,2.67
2023-10-29T17:40:48.959Z,2.55
2023-10-29T17:43:15.573Z,2.28
2023-10-29T17:45:44.524Z,3.08
2023-10-29T17:48:11.889Z,2.65
2023-10-29T17:50:42.198Z,2.65
2023-10-29T17:53:08.867Z,3.08
2023-10-29T17:55:36.314Z,4.95
2023-10-29T17:58:03.746Z,4.22
2023-10-29T18:00:30.449Z,4.20
2023-10-29T18:03:00.441Z,3.25
2023-10-29T18:05:30.765Z,2.50
2023-10-29T18:07:57.885Z,2.88
2023-10-29T18:10:25.171Z,2.78
2023-10-29T18:12:52.112Z,2.53
2023-10-29T18:15:18.996Z,2.90
2023-10-29T18:17:46.038Z,2.55
2023-10-29T18:20:13.126Z,2.75
2023-10-29T18:22:40.059Z,2.70
2023-10-29T18:25:07.242Z,3.47
2023-10-29T18:27:37.021Z,2.42
2023-10-29T18:30:07.444Z,2.67
2023-10-29T18:32:35.088Z,2.70
2023-10-29T18:35:01.902Z,3.05
2023-10-29T18:37:28.612Z,3.58
2023-10-29T18:39:56.166Z,3.60
2023-10-29T18:42:23.166Z,3.15
2023-10-29T18:44:50.226Z,3.78
2023-10-29T18:47:23.472Z,3.08
2023-10-29T18:49:51.015Z,3.60
2023-10-29T18:52:19.919Z,3.50
2023-10-29T18:54:47.812Z,3.25
2023-10-29T18:57:15.451Z,3.88
2023-10-29T18:59:42.504Z,2.97
2023-10-29T19:02:09.340Z,4.38
2023-10-29T19:04:37.449Z,4.72
2023-10-29T19:07:04.925Z,4.03
2023-10-29T19:09:32.111Z,3.33
2023-10-29T19:11:58.971Z,3.97
2023-10-29T19:14:28.282Z,3.60
2023-10-29T19:17:00.491Z,4.13
2023-10-29T19:19:28.292Z,3.85
2023-10-29T19:21:55.315Z,3.90
2023-10-29T19:24:24.611Z,3.47
2023-10-29T19:26:51.482Z,3.83
2023-10-29T19:29:18.653Z,3.47
2023-10-29T19:31:45.826Z,4.18
2023-10-29T19:34:12.532Z,4.05
2023-10-29T19:36:39.379Z,4.60
2023-10-29T19:39:08.804Z,4.03
2023-10-29T19:41:36.258Z,3.95
2023-10-29T19:44:03.191Z,4.50
2023-10-29T19:46:32.330Z,4.78
2023-10-29T19:49:01.840Z,4.15
2023-10-29T19:51:29.724Z,4.15
2023-10-29T19:53:56.603Z,4.60
2023-10-29T19:56:25.105Z,3.85
2023-10-29T19:58:51.917Z,5.45
2023-10-29T20:01:21.384Z,3.47
2023-10-29T20:03:49.319Z,5.00
2023-10-29T20:06:16.386Z,4.22
2023-10-29T20:08:47.071Z,7.18
2023-10-29T20:11:15.048Z,12.32
2023-10-29T20:13:47.707Z,7.65
2023-10-29T20:16:15.478Z,5.55
2023-10-29T20:18:49.346Z,4.60
2023-10-29T20:21:19.970Z,3.85
2023-10-29T20:23:48.116Z,4.05
2023-10-29T20:26:17.217Z,4.28
2023-10-29T20:28:44.625Z,4.45
2023-10-29T20:31:11.392Z,3.90
2023-10-29T20:33:38.432Z,4.95
2023-10-29T20:36:08.942Z,4.70
2023-10-29T20:38:36.290Z,5.00
2023-10-29T20:41:10.054Z,6.55
2023-10-29T20:43:40.625Z,5.93
2023-10-29T20:46:09.973Z,5.13
2023-10-29T20:48:37.740Z,4.90
2023-10-29T20:51:04.933Z,5.57
2023-10-29T20:53:35.172Z,5.45
2023-10-29T20:56:06.591Z,5.68
2023-10-29T20:58:33.601Z,5.05
2023-10-29T21:01:03.271Z,4.90
2023-10-29T21:03:31.178Z,4.85
2023-10-29T21:05:59.557Z,5.32
2023-10-29T21:08:26.862Z,4.90
2023-10-29T21:11:09.782Z,4.50
2023-10-29T21:13:37.422Z,4.20
2023-10-29T21:16:07.641Z,4.40
2023-10-29T21:18:36.977Z,4.57
2023-10-29T21:21:04.118Z,5.07
2023-10-29T21:23:31.660Z,5.30
2023-10-29T21:25:59.260Z,4.38
2023-10-29T21:28:26.139Z,5.35
2023-10-29T21:30:52.990Z,3.45
2023-10-29T21:33:19.792Z,4.35
2023-10-29T21:35:47.537Z,4.05
2023-10-29T21:38:15.707Z,4.35
2023-10-29T21:40:42.619Z,4.15
2023-10-29T21:43:09.377Z,3.78
2023-10-29T21:45:42.142Z,4.13
2023-10-29T21:48:09.967Z,4.03
2023-10-29T21:50:39.512Z,3.70
2023-10-29T21:53:07.638Z,3.55
2023-10-29T21:55:37.202Z,4.65
2023-10-29T21:58:06.172Z,3.92
2023-10-29T22:00:33.259Z,3.10
2023-10-29T22:03:01.559Z,3.85
2023-10-29T22:05:30.158Z,4.32
2023-10-29T22:07:56.972Z,3.40
2023-10-29T22:10:23.783Z,4.40
2023-10-29T22:12:50.689Z,3.63
2023-10-29T22:15:18.431Z,3.42
2023-10-29T22:17:45.304Z,3.70
2023-10-29T22:20:12.346Z,2.90
2023-10-29T22:22:39.216Z,3.88
2023-10-29T22:25:06.229Z,2.75
2023-10-29T22:27:33.191Z,3.85
2023-10-29T22:30:00.208Z,3.33
2023-10-29T22:32:27.167Z,3.03
2023-10-29T22:34:53.952Z,2.83
2023-10-29T22:37:21.151Z,2.53
2023-10-29T22:39:48.257Z,3.13
2023-10-29T22:42:15.317Z,2.83
2023-10-29T22:44:42.040Z,3.30
2023-10-29T22:47:08.912Z,2.40
2023-10-29T22:49:35.989Z,2.53
2023-10-29T22:52:02.750Z,2.22
2023-10-29T22:54:30.179Z,2.70
2023-10-29T22:56:57.171Z,2.58
2023-10-29T22:59:23.835Z,2.67
2023-10-29T23:01:51.307Z,2.40
2023-10-29T23:04:18.049Z,2.67
2023-10-29T23:06:44.871Z,2.55
2023-10-29T23:09:14.773Z,3.35
2023-10-29T23:11:41.803Z,2.60
2023-10-29T23:14:08.631Z,2.90
2023-10-29T23:16:35.581Z,3.17
2023-10-29T23:19:02.930Z,2.38
2023-10-29T23:21:29.664Z,2.38
2023-10-29T23:23:56.458Z,2.55
2023-10-29T23:26:23.769Z,2.05
2023-10-29T23:28:53.542Z,2.63
2023-10-29T23:31:20.613Z,2.15
2023-10-29T23:33:47.793Z,2.25
2023-10-29T23:36:14.502Z,2.38
2023-10-29T23:38:41.217Z,2.03
2023-10-29T23:41:08.365Z,2.72
2023-10-29T23:43:35.062Z,2.25
2023-10-29T23:46:01.777Z,2.42
2023-10-29T23:48:31.862Z,2.40
2023-10-29T23:50:58.874Z,2.28
2023-10-29T23:53:25.626Z,2.50
2023-10-29T23:55:52.451Z,2.22
2023-10-29T23:58:20.393Z,2.97
